createdAt,value
2019-02-25T00:00:58.144Z,2.40
2019-02-25T00:03:26.090Z,2.40
2019-02-25T00:05:54.132Z,2.40
2019-02-25T00:08:23.179Z,2.40
2019-02-25T00:10:51.205Z,2.40
2019-02-25T00:13:19.265Z,2.40
2019-02-25T00:15:47.315Z,2.40
2019-02-25T00:18:15.442Z,2.50
2019-02-25T00:20:43.477Z,2.50
2019-02-25T00:23:11.580Z,2.50
2019-02-25T00:25:39.626Z,2.50
2019-02-25T00:28:07.726Z,2.40
2019-02-25T00:30:35.828Z,2.50
2019-02-25T00:33:03.964Z,2.40
2019-02-25T00:35:32.032Z,2.40
2019-02-25T00:37:59.951Z,2.40
2019-02-25T00:40:28.193Z,2.40
2019-02-25T00:42:56.259Z,2.30
2019-02-25T00:45:24.282Z,2.40
2019-02-25T00:47:52.665Z,2.40
2019-02-25T00:50:21.036Z,2.40
2019-02-25T00:52:49.143Z,2.50
2019-02-25T00:55:17.452Z,2.50
2019-02-25T00:57:45.515Z,2.60
2019-02-25T01:00:14.569Z,2.60
2019-02-25T01:02:42.904Z,2.70
2019-02-25T01:05:10.964Z,2.70
2019-02-25T01:07:39.134Z,2.70
2019-02-25T01:10:08.472Z,2.70
2019-02-25T01:12:36.484Z,2.70
2019-02-25T01:15:04.912Z,2.70
2019-02-25T01:17:33.204Z,2.70
2019-02-25T01:20:01.135Z,2.70
2019-02-25T01:22:29.319Z,2.60
2019-02-25T01:24:57.428Z,2.60
2019-02-25T01:27:25.745Z,2.70
2019-02-25T01:29:53.779Z,2.70
2019-02-25T01:32:21.796Z,2.70
2019-02-25T01:34:49.908Z,2.70
2019-02-25T01:37:18.046Z,2.80
2019-02-25T01:39:46.073Z,2.80
2019-02-25T01:42:14.144Z,2.90
2019-02-25T01:44:42.204Z,3.00
2019-02-25T01:47:10.257Z,3.10
2019-02-25T01:49:38.500Z,3.10
2019-02-25T01:52:06.844Z,3.20
2019-02-25T01:54:35.103Z,3.20
2019-02-25T01:57:03.232Z,3.20
2019-02-25T01:59:31.301Z,3.30
2019-02-25T02:01:59.382Z,3.30
2019-02-25T02:04:27.780Z,3.40
2019-02-25T02:06:56.117Z,3.40
2019-02-25T02:09:24.173Z,3.50
2019-02-25T02:11:52.240Z,3.50
2019-02-25T02:14:20.361Z,3.50
2019-02-25T02:16:48.415Z,3.50
2019-02-25T02:19:16.488Z,3.60
2019-02-25T02:21:44.531Z,3.70
2019-02-25T02:24:12.442Z,3.70
2019-02-25T02:26:40.740Z,3.70
2019-02-25T02:29:09.069Z,3.70
2019-02-25T02:31:37.188Z,3.70
2019-02-25T02:34:05.444Z,3.80
2019-02-25T02:36:33.629Z,3.70
2019-02-25T02:39:01.591Z,3.70
2019-02-25T02:41:51.488Z,3.70
2019-02-25T02:44:19.584Z,3.70
2019-02-25T02:47:30.052Z,3.70
2019-02-25T02:49:58.488Z,3.70
2019-02-25T02:52:26.874Z,3.60
2019-02-25T02:54:55.214Z,3.60
2019-02-25T02:57:23.155Z,3.70
2019-02-25T02:59:51.087Z,3.70
2019-02-25T03:02:19.100Z,3.70
2019-02-25T03:04:47.220Z,3.70
2019-02-25T03:07:15.388Z,3.70
2019-02-25T03:09:43.613Z,3.70
2019-02-25T03:12:11.612Z,3.80
2019-02-25T03:14:39.813Z,3.80
2019-02-25T03:17:08.179Z,3.80
2019-02-25T03:19:36.201Z,3.70
2019-02-25T03:22:04.212Z,3.70
2019-02-25T03:24:32.367Z,3.70
2019-02-25T03:27:00.414Z,3.70
2019-02-25T03:29:28.456Z,3.60
2019-02-25T03:31:56.605Z,3.60
2019-02-25T03:34:24.700Z,3.60
2019-02-25T03:36:52.675Z,3.60
2019-02-25T03:39:20.739Z,3.50
2019-02-25T03:41:48.812Z,3.50
2019-02-25T03:44:17.345Z,3.50
2019-02-25T03:46:45.580Z,3.50
2019-02-25T03:49:13.689Z,3.60
2019-02-25T03:51:41.808Z,3.60
2019-02-25T03:54:10.160Z,3.60
2019-02-25T03:56:38.095Z,3.70
2019-02-25T03:59:06.060Z,3.70
2019-02-25T04:01:34.328Z,3.70
2019-02-25T04:04:03.499Z,3.80
2019-02-25T04:06:31.783Z,3.80
2019-02-25T04:09:00.176Z,3.90
2019-02-25T04:11:28.400Z,3.90
2019-02-25T04:13:56.647Z,3.90
2019-02-25T04:16:24.771Z,3.90
2019-02-25T04:18:52.843Z,3.90
2019-02-25T04:21:20.830Z,3.90
2019-02-25T04:23:48.792Z,3.90
2019-02-25T04:26:16.717Z,4.00
2019-02-25T04:28:44.791Z,4.00
2019-02-25T04:31:12.716Z,4.10
2019-02-25T04:33:40.892Z,4.10
2019-02-25T04:36:08.960Z,4.10
2019-02-25T04:38:36.989Z,4.10
2019-02-25T04:41:05.163Z,4.10
2019-02-25T04:43:33.568Z,4.10
2019-02-25T04:46:01.528Z,4.10
2019-02-25T04:48:29.692Z,4.10
2019-02-25T04:50:58.048Z,4.10
2019-02-25T04:53:26.072Z,4.20
2019-02-25T04:55:54.111Z,4.20
2019-02-25T04:58:22.216Z,4.30
2019-02-25T05:00:50.432Z,4.30
2019-02-25T05:03:18.661Z,4.30
2019-02-25T05:05:46.699Z,4.40
2019-02-25T05:08:14.809Z,4.40
2019-02-25T05:10:42.824Z,4.40
2019-02-25T05:13:10.949Z,4.40
2019-02-25T05:15:38.992Z,4.50
2019-02-25T05:18:07.140Z,4.50
2019-02-25T05:20:35.163Z,4.60
2019-02-25T05:23:03.184Z,4.60
2019-02-25T05:25:31.328Z,4.70
2019-02-25T05:27:59.530Z,4.70
2019-02-25T05:30:27.765Z,4.70
2019-02-25T05:32:55.843Z,4.70
2019-02-25T05:35:23.876Z,4.70
2019-02-25T05:37:51.865Z,4.80
2019-02-25T05:40:20.001Z,4.80
2019-02-25T05:42:48.250Z,4.80
2019-02-25T05:45:16.638Z,4.90
2019-02-25T05:47:44.581Z,4.90
2019-02-25T05:50:13.298Z,4.90
2019-02-25T05:52:41.202Z,4.90
2019-02-25T05:55:10.807Z,5.00
2019-02-25T05:57:39.004Z,5.00
2019-02-25T06:00:10.097Z,5.00
2019-02-25T06:02:38.262Z,5.10
2019-02-25T06:05:06.360Z,5.10
2019-02-25T06:07:34.450Z,5.10
2019-02-25T06:10:03.090Z,5.10
2019-02-25T06:12:31.174Z,5.20
2019-02-25T06:14:59.253Z,5.20
2019-02-25T06:17:27.634Z,5.30
2019-02-25T06:19:55.678Z,5.30
2019-02-25T06:22:23.744Z,5.40
2019-02-25T06:24:51.828Z,5.40
2019-02-25T06:27:19.712Z,5.50
2019-02-25T06:29:47.660Z,5.50
2019-02-25T06:32:16.018Z,5.60
2019-02-25T06:34:44.094Z,5.60
2019-02-25T06:37:12.112Z,5.70
2019-02-25T06:39:40.200Z,5.70
2019-02-25T06:42:08.348Z,5.70
2019-02-25T06:44:36.264Z,5.80
2019-02-25T06:47:04.412Z,5.80
2019-02-25T06:49:32.233Z,5.90
2019-02-25T06:52:00.265Z,6.00
2019-02-25T06:54:28.324Z,6.10
2019-02-25T06:56:56.372Z,6.10
2019-02-25T06:59:24.438Z,6.20
2019-02-25T07:01:52.544Z,6.30
2019-02-25T07:04:40.060Z,6.40
2019-02-25T07:07:11.305Z,6.50
2019-02-25T07:09:59.014Z,6.50
2019-02-25T07:12:42.644Z,6.60
2019-02-25T07:15:27.961Z,6.60
2019-02-25T07:18:14.415Z,6.70
2019-02-25T07:20:58.432Z,6.70
2019-02-25T07:23:37.595Z,6.80
2019-02-25T07:26:27.647Z,6.90
2019-02-25T07:29:11.496Z,6.80
2019-02-25T07:31:58.027Z,6.80
2019-02-25T07:34:35.788Z,6.90
2019-02-25T07:37:20.057Z,6.90
2019-02-25T07:40:10.434Z,6.90
2019-02-25T07:43:06.979Z,6.90
2019-02-25T07:45:47.988Z,6.90
2019-02-25T07:48:42.423Z,7.00
2019-02-25T07:51:29.059Z,7.10
2019-02-25T07:54:19.580Z,7.20
2019-02-25T07:56:56.503Z,7.30
2019-02-25T07:59:32.835Z,7.40
2019-02-25T08:02:10.233Z,7.50
2019-02-25T08:04:49.901Z,7.50
2019-02-25T08:07:52.568Z,7.70
2019-02-25T08:10:36.221Z,7.80
2019-02-25T08:13:22.816Z,8.10
2019-02-25T08:16:09.148Z,8.30
2019-02-25T08:18:56.440Z,8.50
2019-02-25T08:21:36.348Z,8.60
2019-02-25T08:24:30.666Z,8.80
2019-02-25T08:27:08.061Z,8.80
2019-02-25T08:30:04.676Z,8.80
2019-02-25T08:32:50.901Z,8.90
2019-02-25T08:36:16.695Z,9.00
2019-02-25T08:39:10.209Z,9.10
2019-02-25T08:41:47.484Z,9.30
2019-02-25T08:44:47.368Z,9.30
2019-02-25T08:47:22.672Z,9.40
2019-02-25T08:49:53.900Z,9.40
2019-02-25T08:52:22.040Z,9.60
2019-02-25T08:54:50.049Z,9.80
2019-02-25T08:57:18.074Z,9.90
2019-02-25T08:59:46.120Z,10.10
2019-02-25T09:02:14.255Z,10.10
2019-02-25T09:04:42.164Z,10.10
2019-02-25T09:07:10.345Z,10.20
2019-02-25T09:09:38.268Z,10.10
2019-02-25T09:12:06.592Z,10.10
2019-02-25T09:14:34.537Z,10.10
2019-02-25T09:17:02.610Z,10.00
2019-02-25T09:19:30.663Z,10.00
2019-02-25T09:21:58.840Z,10.00
2019-02-25T09:24:27.212Z,10.10
2019-02-25T09:26:55.328Z,10.20
2019-02-25T09:29:23.291Z,10.30
2019-02-25T09:31:51.317Z,10.50
2019-02-25T09:34:19.188Z,10.80
2019-02-25T09:36:47.192Z,11.00
2019-02-25T09:39:16.784Z,11.30
2019-02-25T09:41:45.210Z,11.60
2019-02-25T09:44:13.278Z,11.80
2019-02-25T09:46:41.315Z,11.80
2019-02-25T09:49:09.344Z,11.70
2019-02-25T09:51:37.524Z,11.70
2019-02-25T09:54:05.656Z,11.70
2019-02-25T09:56:33.696Z,11.70
2019-02-25T09:59:01.708Z,11.70
2019-02-25T10:01:29.723Z,11.90
2019-02-25T10:03:57.889Z,12.00
2019-02-25T10:06:25.996Z,12.20
2019-02-25T10:08:54.232Z,12.50
2019-02-25T10:11:22.384Z,12.80
2019-02-25T10:13:51.905Z,13.10
2019-02-25T10:16:20.331Z,13.50
2019-02-25T10:18:48.416Z,14.00
2019-02-25T10:21:16.516Z,14.50
2019-02-25T10:23:44.541Z,14.70
2019-02-25T10:26:12.685Z,14.80
2019-02-25T10:28:40.669Z,14.90
2019-02-25T10:31:08.843Z,15.10
2019-02-25T10:33:37.169Z,15.10
2019-02-25T10:36:05.538Z,14.90
2019-02-25T10:38:37.487Z,14.50
2019-02-25T10:41:05.664Z,14.20
2019-02-25T10:43:36.113Z,14.00
2019-02-25T10:46:03.662Z,14.00
2019-02-25T10:48:31.856Z,14.00
2019-02-25T10:51:00.094Z,14.00
2019-02-25T10:53:28.204Z,13.80
2019-02-25T10:56:21.513Z,13.70
2019-02-25T10:58:49.404Z,13.70
2019-02-25T11:01:19.901Z,13.60
2019-02-25T11:03:47.908Z,13.40
2019-02-25T11:06:17.458Z,13.30
2019-02-25T11:08:50.178Z,13.20
2019-02-25T11:11:23.223Z,13.10
2019-02-25T11:13:51.547Z,13.10
2019-02-25T11:16:20.474Z,13.00
2019-02-25T11:18:50.658Z,13.10
2019-02-25T11:21:18.812Z,13.10
2019-02-25T11:23:48.714Z,13.00
2019-02-25T11:26:16.794Z,12.80
2019-02-25T11:28:45.032Z,12.70
2019-02-25T11:31:13.221Z,12.70
2019-02-25T11:33:41.595Z,12.70
2019-02-25T11:36:10.636Z,12.70
2019-02-25T11:38:39.548Z,12.70
2019-02-25T11:41:09.496Z,12.90
2019-02-25T11:43:37.535Z,13.00
2019-02-25T11:46:05.700Z,13.20
2019-02-25T11:48:36.200Z,13.50
2019-02-25T11:51:04.138Z,13.90
2019-02-25T11:53:32.275Z,14.50
2019-02-25T11:56:00.355Z,15.10
2019-02-25T11:58:28.399Z,15.40
2019-02-25T12:00:56.436Z,15.70
2019-02-25T12:03:24.501Z,15.70
2019-02-25T12:05:52.707Z,15.60
2019-02-25T12:08:20.724Z,15.40
2019-02-25T12:10:48.752Z,15.50
2019-02-25T12:13:16.854Z,15.40
2019-02-25T12:15:44.981Z,15.60
2019-02-25T12:18:12.985Z,15.70
2019-02-25T12:20:41.011Z,15.80
2019-02-25T12:23:09.052Z,15.70
2019-02-25T12:25:37.220Z,15.40
2019-02-25T12:28:05.252Z,15.30
2019-02-25T12:30:33.636Z,15.00
2019-02-25T12:33:01.681Z,14.90
2019-02-25T12:35:29.757Z,14.70
2019-02-25T12:37:57.782Z,14.60
2019-02-25T12:40:25.910Z,14.50
2019-02-25T12:42:53.936Z,14.50
2019-02-25T12:45:22.246Z,14.50
2019-02-25T12:47:51.767Z,14.40
2019-02-25T12:50:19.684Z,14.50
2019-02-25T12:52:47.697Z,14.80
2019-02-25T12:55:15.775Z,14.50
2019-02-25T12:57:43.690Z,14.20
2019-02-25T13:00:12.768Z,14.20
2019-02-25T13:02:40.747Z,14.20
2019-02-25T13:05:10.804Z,14.20
2019-02-25T13:07:38.940Z,14.00
2019-02-25T13:10:08.953Z,13.90
2019-02-25T13:12:37.079Z,14.10
2019-02-25T13:15:13.008Z,13.90
2019-02-25T13:17:35.520Z,13.80
2019-02-25T13:20:04.104Z,13.60
2019-02-25T13:22:32.213Z,14.00
2019-02-25T13:25:00.836Z,14.50
2019-02-25T13:27:29.877Z,14.40
2019-02-25T13:29:57.796Z,14.10
2019-02-25T13:32:26.125Z,14.10
2019-02-25T13:34:54.266Z,14.20
2019-02-25T13:37:22.379Z,14.20
2019-02-25T13:39:50.384Z,14.40
2019-02-25T13:42:18.453Z,14.30
2019-02-25T13:44:46.539Z,14.00
2019-02-25T13:47:14.621Z,14.10
2019-02-25T13:49:42.613Z,14.20
2019-02-25T13:52:10.800Z,14.20
2019-02-25T13:54:39.140Z,14.00
2019-02-25T13:57:07.151Z,13.70
2019-02-25T13:59:35.180Z,13.30
2019-02-25T14:02:03.562Z,13.00
2019-02-25T14:04:31.500Z,12.70
2019-02-25T14:06:59.462Z,12.40
2019-02-25T14:09:27.472Z,12.20
2019-02-25T14:11:55.932Z,11.90
2019-02-25T14:14:23.988Z,11.70
2019-02-25T14:16:52.223Z,11.60
2019-02-25T14:19:20.527Z,11.50
2019-02-25T14:21:48.432Z,11.50
2019-02-25T14:24:18.494Z,11.40
2019-02-25T14:26:46.803Z,11.30
2019-02-25T14:29:14.880Z,11.50
2019-02-25T14:31:43.073Z,11.70
2019-02-25T14:34:14.020Z,11.40
2019-02-25T14:36:42.158Z,11.10
2019-02-25T14:39:24.831Z,10.80
2019-02-25T14:41:54.557Z,10.60
2019-02-25T14:44:20.817Z,10.40
2019-02-25T14:46:48.880Z,10.30
2019-02-25T14:49:17.011Z,10.30
2019-02-25T14:51:45.430Z,10.30
2019-02-25T14:54:14.056Z,10.50
2019-02-25T14:56:42.995Z,10.70
2019-02-25T14:59:13.287Z,10.80
2019-02-25T15:01:41.650Z,10.80
2019-02-25T15:04:09.663Z,10.70
2019-02-25T15:06:37.839Z,10.70
2019-02-25T15:09:09.826Z,10.40
2019-02-25T15:11:37.303Z,10.10
2019-02-25T15:14:05.909Z,9.80
2019-02-25T15:16:35.224Z,9.50
2019-02-25T15:19:03.381Z,9.20
2019-02-25T15:21:31.538Z,9.00
2019-02-25T15:24:00.499Z,8.70
2019-02-25T15:26:30.356Z,8.50
2019-02-25T15:29:00.582Z,8.30
2019-02-25T15:31:28.626Z,8.30
2019-02-25T15:33:56.672Z,8.20
2019-02-25T15:36:26.515Z,8.10
2019-02-25T15:38:54.459Z,7.90
2019-02-25T15:41:22.678Z,7.60
2019-02-25T15:43:51.061Z,7.40
2019-02-25T15:46:21.586Z,7.20
2019-02-25T15:48:49.496Z,7.00
2019-02-25T15:51:18.485Z,6.80
2019-02-25T15:53:48.863Z,6.60
2019-02-25T15:56:16.992Z,6.40
2019-02-25T15:58:47.165Z,6.30
2019-02-25T16:01:17.912Z,6.20
2019-02-25T16:03:46.155Z,6.00
2019-02-25T16:06:14.195Z,5.90
2019-02-25T16:08:47.501Z,5.80
2019-02-25T16:11:16.189Z,5.70
2019-02-25T16:13:44.099Z,5.60
2019-02-25T16:16:13.503Z,5.50
2019-02-25T16:18:42.594Z,5.50
2019-02-25T16:21:11.186Z,5.50
2019-02-25T16:23:42.626Z,5.40
2019-02-25T16:26:11.169Z,5.40
2019-02-25T16:28:40.804Z,5.30
2019-02-25T16:31:10.518Z,5.30
2019-02-25T16:33:39.634Z,5.30
2019-02-25T16:36:09.569Z,5.20
2019-02-25T16:38:39.725Z,5.20
2019-02-25T16:41:10.052Z,5.20
2019-02-25T16:43:37.747Z,5.10
2019-02-25T16:46:06.405Z,5.00
2019-02-25T16:48:35.630Z,5.00
2019-02-25T16:51:05.516Z,5.00
2019-02-25T16:53:36.911Z,5.00
2019-02-25T16:56:05.686Z,4.90
2019-02-25T16:58:34.727Z,5.00
2019-02-25T17:01:05.503Z,4.90
2019-02-25T17:03:35.366Z,4.90
2019-02-25T17:06:05.096Z,4.90
2019-02-25T17:08:34.553Z,4.90
2019-02-25T17:11:02.544Z,4.80
2019-02-25T17:13:32.493Z,4.70
2019-02-25T17:16:02.710Z,4.60
2019-02-25T17:18:31.232Z,4.60
2019-02-25T17:20:59.596Z,4.50
2019-02-25T17:23:29.901Z,4.40
2019-02-25T17:25:57.629Z,4.40
2019-02-25T17:28:27.320Z,4.50
2019-02-25T17:30:55.576Z,4.50
2019-02-25T17:33:24.584Z,4.50
2019-02-25T17:35:54.252Z,4.60
2019-02-25T17:38:24.604Z,4.70
2019-02-25T17:40:53.438Z,4.80
2019-02-25T17:43:23.382Z,4.80
2019-02-25T17:45:51.413Z,4.80
2019-02-25T17:48:21.254Z,4.80
2019-02-25T17:50:49.588Z,4.80
2019-02-25T17:53:17.614Z,4.90
2019-02-25T17:55:46.027Z,4.90
2019-02-25T17:58:14.823Z,4.90
2019-02-25T18:00:43.985Z,4.90
2019-02-25T18:03:12.017Z,4.90
2019-02-25T18:05:42.621Z,4.90
2019-02-25T18:08:13.314Z,4.90
2019-02-25T18:10:43.110Z,4.90
2019-02-25T18:13:11.253Z,4.90
2019-02-25T18:15:39.936Z,4.90
2019-02-25T18:18:11.751Z,4.90
2019-02-25T18:20:38.975Z,4.90
2019-02-25T18:23:07.175Z,4.90
2019-02-25T18:25:37.581Z,4.90
2019-02-25T18:28:06.392Z,4.80
2019-02-25T18:30:35.583Z,4.80
2019-02-25T18:33:05.264Z,4.80
2019-02-25T18:35:34.544Z,4.80
2019-02-25T18:38:06.579Z,4.80
2019-02-25T18:40:33.938Z,4.80
2019-02-25T18:43:04.674Z,4.80
2019-02-25T18:45:33.804Z,4.80
2019-02-25T18:48:03.400Z,4.80
2019-02-25T18:50:31.964Z,4.80
2019-02-25T18:53:01.344Z,4.90
2019-02-25T18:55:31.567Z,4.90
2019-02-25T18:57:59.691Z,4.90
2019-02-25T19:00:32.261Z,4.90
2019-02-25T19:03:00.743Z,4.90
2019-02-25T19:05:31.459Z,5.00
2019-02-25T19:07:59.916Z,5.00
2019-02-25T19:10:28.160Z,5.00
2019-02-25T19:12:58.231Z,5.10
2019-02-25T19:15:26.209Z,5.20
2019-02-25T19:17:54.469Z,5.20
2019-02-25T19:20:23.425Z,5.20
2019-02-25T19:22:51.475Z,5.30
2019-02-25T19:25:31.142Z,5.30
2019-02-25T19:27:50.607Z,5.40
2019-02-25T19:30:19.827Z,5.40
2019-02-25T19:32:49.577Z,5.40
2019-02-25T19:35:17.711Z,5.50
2019-02-25T19:37:46.817Z,5.50
2019-02-25T19:40:19.332Z,5.50
2019-02-25T19:42:51.337Z,5.50
2019-02-25T19:45:17.867Z,5.50
2019-02-25T19:47:46.641Z,5.60
2019-02-25T19:50:14.962Z,5.60
2019-02-25T19:52:44.283Z,5.50
2019-02-25T19:55:13.425Z,5.50
2019-02-25T19:57:42.813Z,5.40
2019-02-25T20:00:22.087Z,5.40
2019-02-25T20:02:48.422Z,5.30
2019-02-25T20:05:19.160Z,5.20
2019-02-25T20:07:47.088Z,5.00
2019-02-25T20:10:15.225Z,4.90
2019-02-25T20:12:43.531Z,4.80
2019-02-25T20:15:16.565Z,4.60
2019-02-25T20:17:46.768Z,4.50
2019-02-25T20:20:15.412Z,4.40
2019-02-25T20:22:43.471Z,4.20
2019-02-25T20:25:12.600Z,4.10
2019-02-25T20:27:41.870Z,4.10
2019-02-25T20:30:12.528Z,4.00
2019-02-25T20:32:41.185Z,3.90
2019-02-25T20:35:11.592Z,3.90
2019-02-25T20:37:39.684Z,3.80
2019-02-25T20:40:08.476Z,3.80
2019-02-25T20:42:36.640Z,3.70
2019-02-25T20:45:06.300Z,3.70
2019-02-25T20:47:34.239Z,3.70
2019-02-25T20:50:05.021Z,3.70
2019-02-25T20:52:34.571Z,3.70
2019-02-25T20:55:05.786Z,3.70
2019-02-25T20:57:35.883Z,3.80
2019-02-25T21:00:04.427Z,3.80
2019-02-25T21:02:32.596Z,3.80
2019-02-25T21:05:00.632Z,3.80
2019-02-25T21:07:29.702Z,3.80
2019-02-25T21:09:59.181Z,3.80
2019-02-25T21:12:28.532Z,3.80
2019-02-25T21:14:56.636Z,3.80
2019-02-25T21:17:24.669Z,3.80
2019-02-25T21:19:52.622Z,3.70
2019-02-25T21:22:23.130Z,3.70
2019-02-25T21:24:54.100Z,3.60
2019-02-25T21:27:20.591Z,3.60
2019-02-25T21:29:48.716Z,3.60
2019-02-25T21:32:17.438Z,3.60
2019-02-25T21:34:52.486Z,3.60
2019-02-25T21:37:16.625Z,3.50
2019-02-25T21:39:44.639Z,3.60
2019-02-25T21:42:14.916Z,3.60
2019-02-25T21:44:46.209Z,3.60
2019-02-25T21:47:12.940Z,3.50
2019-02-25T21:49:41.286Z,3.50
2019-02-25T21:52:10.875Z,3.50
2019-02-25T21:54:39.526Z,3.40
2019-02-25T21:57:09.650Z,3.40
2019-02-25T21:59:38.725Z,3.30
2019-02-25T22:02:07.585Z,3.20
2019-02-25T22:04:38.515Z,3.20
2019-02-25T22:07:05.532Z,3.10
2019-02-25T22:09:36.973Z,3.10
2019-02-25T22:12:03.717Z,3.10
2019-02-25T22:14:31.791Z,3.00
2019-02-25T22:17:01.029Z,3.00
2019-02-25T22:19:29.229Z,3.00
2019-02-25T22:21:57.960Z,3.00
2019-02-25T22:24:29.306Z,3.00
2019-02-25T22:26:58.036Z,3.00
2019-02-25T22:29:27.670Z,3.00
2019-02-25T22:31:55.810Z,3.00
2019-02-25T22:34:25.368Z,3.00
2019-02-25T22:36:55.792Z,3.00
2019-02-25T22:39:25.215Z,3.00
2019-02-25T22:41:53.558Z,3.00
2019-02-25T22:44:22.616Z,3.00
2019-02-25T22:46:53.002Z,3.00
2019-02-25T22:49:22.032Z,3.10
2019-02-25T22:51:55.734Z,3.10
2019-02-25T22:54:22.578Z,3.10
2019-02-25T22:56:50.889Z,3.10
2019-02-25T22:59:20.715Z,3.10
2019-02-25T23:01:52.061Z,3.10
2019-02-25T23:04:19.691Z,3.10
2019-02-25T23:06:51.257Z,3.10
2019-02-25T23:09:21.112Z,3.10
2019-02-25T23:11:50.472Z,3.10
2019-02-25T23:14:18.769Z,3.10
2019-02-25T23:16:47.950Z,3.10
2019-02-25T23:19:18.058Z,3.10
2019-02-25T23:21:46.336Z,3.10
2019-02-25T23:24:14.353Z,3.10
2019-02-25T23:26:42.505Z,3.10
2019-02-25T23:29:10.775Z,3.10
2019-02-25T23:31:38.835Z,3.10
2019-02-25T23:34:08.012Z,3.20
2019-02-25T23:36:40.682Z,3.20
2019-02-25T23:39:07.169Z,3.20
2019-02-25T23:41:36.540Z,3.20
2019-02-25T23:44:07.115Z,3.20
2019-02-25T23:46:37.148Z,3.20
2019-02-25T23:49:04.752Z,3.20
2019-02-25T23:51:33.107Z,3.30
2019-02-25T23:54:01.121Z,3.30
2019-02-25T23:56:30.062Z,3.20
2019-02-25T23:58:59.420Z,3.30
